sensor_id;sensor_type;location;lat;lon;timestamp;P1;durP1;ratioP1;P2;durP2;ratioP2
1601;SDS011;794;48.592;9.634;2022-08-03T00:01:24;3.50;;;3.20;;
1601;SDS011;794;48.592;9.634;2022-08-03T00:03:51;3.20;;;3.00;;
1601;SDS011;794;48.592;9.634;2022-08-03T00:06:19;4.57;;;3.13;;
1601;SDS011;794;48.592;9.634;2022-08-03T00:08:46;4.20;;;3.90;;
1601;SDS011;794;48.592;9.634;2022-08-03T00:11:14;2.97;;;2.77;;
1601;SDS011;794;48.592;9.634;2022-08-03T00:13:41;3.33;;;3.13;;
1601;SDS011;794;48.592;9.634;2022-08-03T00:16:08;3.53;;;3.23;;
1601;SDS011;794;48.592;9.634;2022-08-03T00:18:36;3.00;;;2.80;;
1601;SDS011;794;48.592;9.634;2022-08-03T00:21:03;3.57;;;3.27;;
1601;SDS011;794;48.592;9.634;2022-08-03T00:23:32;4.53;;;4.20;;
1601;SDS011;794;48.592;9.634;2022-08-03T00:26:00;4.53;;;4.00;;
1601;SDS011;794;48.592;9.634;2022-08-03T00:28:27;3.40;;;3.10;;
1601;SDS011;794;48.592;9.634;2022-08-03T00:30:54;3.93;;;3.63;;
1601;SDS011;794;48.592;9.634;2022-08-03T00:33:22;3.97;;;3.40;;
1601;SDS011;794;48.592;9.634;2022-08-03T00:35:49;3.77;;;3.47;;
1601;SDS011;794;48.592;9.634;2022-08-03T00:38:17;3.63;;;3.37;;
1601;SDS011;794;48.592;9.634;2022-08-03T00:40:46;3.40;;;3.17;;
1601;SDS011;794;48.592;9.634;2022-08-03T00:43:13;3.90;;;3.60;;
1601;SDS011;794;48.592;9.634;2022-08-03T00:45:40;3.70;;;3.40;;
1601;SDS011;794;48.592;9.634;2022-08-03T00:48:10;3.30;;;2.97;;
1601;SDS011;794;48.592;9.634;2022-08-03T00:50:38;3.80;;;3.33;;
1601;SDS011;794;48.592;9.634;2022-08-03T00:53:08;4.20;;;2.80;;
1601;SDS011;794;48.592;9.634;2022-08-03T00:55:37;3.50;;;3.20;;
1601;SDS011;794;48.592;9.634;2022-08-03T00:58:06;4.10;;;3.33;;
1601;SDS011;794;48.592;9.634;2022-08-03T01:00:35;3.20;;;2.97;;
1601;SDS011;794;48.592;9.634;2022-08-03T01:03:04;3.03;;;2.83;;
1601;SDS011;794;48.592;9.634;2022-08-03T01:05:32;3.70;;;3.40;;
1601;SDS011;794;48.592;9.634;2022-08-03T01:08:07;3.63;;;3.20;;
1601;SDS011;794;48.592;9.634;2022-08-03T01:10:40;4.30;;;4.00;;
1601;SDS011;794;48.592;9.634;2022-08-03T01:13:19;4.00;;;3.60;;
1601;SDS011;794;48.592;9.634;2022-08-03T01:15:53;3.80;;;3.50;;
1601;SDS011;794;48.592;9.634;2022-08-03T01:18:34;4.00;;;2.90;;
1601;SDS011;794;48.592;9.634;2022-08-03T01:21:06;9.83;;;3.30;;
1601;SDS011;794;48.592;9.634;2022-08-03T01:23:47;3.80;;;3.40;;
1601;SDS011;794;48.592;9.634;2022-08-03T01:26:31;4.20;;;3.10;;
1601;SDS011;794;48.592;9.634;2022-08-03T01:29:12;3.20;;;2.83;;
1601;SDS011;794;48.592;9.634;2022-08-03T01:31:56;3.60;;;3.33;;
1601;SDS011;794;48.592;9.634;2022-08-03T01:34:27;4.47;;;3.40;;
1601;SDS011;794;48.592;9.634;2022-08-03T01:36:57;3.37;;;3.07;;
1601;SDS011;794;48.592;9.634;2022-08-03T01:39:27;3.37;;;3.00;;
1601;SDS011;794;48.592;9.634;2022-08-03T01:41:57;3.33;;;3.03;;
1601;SDS011;794;48.592;9.634;2022-08-03T01:44:32;3.40;;;3.10;;
1601;SDS011;794;48.592;9.634;2022-08-03T01:47:03;3.90;;;3.60;;
1601;SDS011;794;48.592;9.634;2022-08-03T01:49:32;5.10;;;2.50;;
1601;SDS011;794;48.592;9.634;2022-08-03T01:52:03;4.63;;;2.70;;
1601;SDS011;794;48.592;9.634;2022-08-03T01:54:33;3.37;;;2.50;;
1601;SDS011;794;48.592;9.634;2022-08-03T01:57:03;2.83;;;2.60;;
1601;SDS011;794;48.592;9.634;2022-08-03T01:59:32;2.93;;;2.73;;
1601;SDS011;794;48.592;9.634;2022-08-03T02:02:00;2.93;;;2.73;;
1601;SDS011;794;48.592;9.634;2022-08-03T02:04:29;2.63;;;2.43;;
1601;SDS011;794;48.592;9.634;2022-08-03T02:06:57;2.63;;;2.40;;
1601;SDS011;794;48.592;9.634;2022-08-03T02:09:25;2.87;;;2.57;;
1601;SDS011;794;48.592;9.634;2022-08-03T02:11:54;3.37;;;2.87;;
1601;SDS011;794;48.592;9.634;2022-08-03T02:14:22;3.50;;;3.20;;
1601;SDS011;794;48.592;9.634;2022-08-03T02:16:52;4.87;;;2.40;;
1601;SDS011;794;48.592;9.634;2022-08-03T02:19:22;3.00;;;2.70;;
1601;SDS011;794;48.592;9.634;2022-08-03T02:21:51;2.67;;;2.43;;
1601;SDS011;794;48.592;9.634;2022-08-03T02:24:19;2.73;;;2.53;;
1601;SDS011;794;48.592;9.634;2022-08-03T02:26:46;2.97;;;2.77;;
1601;SDS011;794;48.592;9.634;2022-08-03T02:29:17;2.27;;;2.10;;
1601;SDS011;794;48.592;9.634;2022-08-03T02:31:47;3.23;;;2.93;;
1601;SDS011;794;48.592;9.634;2022-08-03T02:34:17;2.90;;;2.70;;
1601;SDS011;794;48.592;9.634;2022-08-03T02:36:49;3.80;;;3.00;;
1601;SDS011;794;48.592;9.634;2022-08-03T02:39:19;2.80;;;2.60;;
1601;SDS011;794;48.592;9.634;2022-08-03T02:41:50;6.03;;;2.90;;
1601;SDS011;794;48.592;9.634;2022-08-03T02:44:20;3.53;;;2.30;;
1601;SDS011;794;48.592;9.634;2022-08-03T02:46:52;2.80;;;2.47;;
1601;SDS011;794;48.592;9.634;2022-08-03T02:49:24;2.20;;;1.77;;
1601;SDS011;794;48.592;9.634;2022-08-03T02:51:53;3.10;;;2.80;;
1601;SDS011;794;48.592;9.634;2022-08-03T02:54:22;2.77;;;2.37;;
1601;SDS011;794;48.592;9.634;2022-08-03T02:56:52;2.43;;;2.23;;
1601;SDS011;794;48.592;9.634;2022-08-03T02:59:21;2.40;;;2.20;;
1601;SDS011;794;48.592;9.634;2022-08-03T03:01:49;2.17;;;2.07;;
1601;SDS011;794;48.592;9.634;2022-08-03T03:04:19;2.00;;;1.90;;
1601;SDS011;794;48.592;9.634;2022-08-03T03:06:49;3.90;;;3.10;;
1601;SDS011;794;48.592;9.634;2022-08-03T03:09:17;2.50;;;2.33;;
1601;SDS011;794;48.592;9.634;2022-08-03T03:11:44;3.80;;;2.63;;
1601;SDS011;794;48.592;9.634;2022-08-03T03:14:12;2.57;;;2.47;;
1601;SDS011;794;48.592;9.634;2022-08-03T03:16:41;2.67;;;2.47;;
1601;SDS011;794;48.592;9.634;2022-08-03T03:19:10;4.10;;;2.40;;
1601;SDS011;794;48.592;9.634;2022-08-03T03:21:39;3.47;;;2.03;;
1601;SDS011;794;48.592;9.634;2022-08-03T03:24:09;2.50;;;2.30;;
1601;SDS011;794;48.592;9.634;2022-08-03T03:26:37;2.70;;;2.07;;
1601;SDS011;794;48.592;9.634;2022-08-03T03:29:05;3.10;;;2.33;;
1601;SDS011;794;48.592;9.634;2022-08-03T03:31:33;2.07;;;1.97;;
1601;SDS011;794;48.592;9.634;2022-08-03T03:34:01;2.40;;;2.20;;
1601;SDS011;794;48.592;9.634;2022-08-03T03:36:29;2.37;;;2.13;;
1601;SDS011;794;48.592;9.634;2022-08-03T03:38:56;3.53;;;3.20;;
1601;SDS011;794;48.592;9.634;2022-08-03T03:41:25;2.33;;;2.10;;
1601;SDS011;794;48.592;9.634;2022-08-03T03:43:52;3.50;;;2.20;;
1601;SDS011;794;48.592;9.634;2022-08-03T03:46:19;2.53;;;2.37;;
1601;SDS011;794;48.592;9.634;2022-08-03T03:48:48;2.30;;;2.10;;
1601;SDS011;794;48.592;9.634;2022-08-03T03:51:16;2.37;;;2.17;;
1601;SDS011;794;48.592;9.634;2022-08-03T03:53:53;2.63;;;2.43;;
1601;SDS011;794;48.592;9.634;2022-08-03T03:56:22;2.43;;;2.23;;
1601;SDS011;794;48.592;9.634;2022-08-03T03:58:52;3.10;;;2.80;;
1601;SDS011;794;48.592;9.634;2022-08-03T04:01:19;2.43;;;2.23;;
1601;SDS011;794;48.592;9.634;2022-08-03T04:03:46;2.17;;;2.00;;
1601;SDS011;794;48.592;9.634;2022-08-03T04:06:13;2.40;;;1.50;;
1601;SDS011;794;48.592;9.634;2022-08-03T04:08:59;2.30;;;2.10;;
1601;SDS011;794;48.592;9.634;2022-08-03T04:11:44;2.60;;;2.40;;
1601;SDS011;794;48.592;9.634;2022-08-03T04:14:18;2.80;;;2.60;;
1601;SDS011;794;48.592;9.634;2022-08-03T04:16:50;2.63;;;2.43;;
1601;SDS011;794;48.592;9.634;2022-08-03T04:19:23;2.93;;;2.20;;
1601;SDS011;794;48.592;9.634;2022-08-03T04:21:59;3.60;;;2.57;;
1601;SDS011;794;48.592;9.634;2022-08-03T04:24:30;3.77;;;2.63;;
1601;SDS011;794;48.592;9.634;2022-08-03T04:27:03;2.13;;;2.03;;
1601;SDS011;794;48.592;9.634;2022-08-03T04:29:33;2.60;;;2.40;;
1601;SDS011;794;48.592;9.634;2022-08-03T04:32:04;2.30;;;2.20;;
1601;SDS011;794;48.592;9.634;2022-08-03T04:34:44;2.90;;;2.70;;
1601;SDS011;794;48.592;9.634;2022-08-03T04:37:15;2.80;;;2.50;;
1601;SDS011;794;48.592;9.634;2022-08-03T04:39:58;2.67;;;2.47;;
1601;SDS011;794;48.592;9.634;2022-08-03T04:42:29;3.50;;;2.60;;
1601;SDS011;794;48.592;9.634;2022-08-03T04:45:01;2.50;;;2.30;;
1601;SDS011;794;48.592;9.634;2022-08-03T04:47:32;2.80;;;2.60;;
1601;SDS011;794;48.592;9.634;2022-08-03T04:50:08;6.23;;;3.10;;
1601;SDS011;794;48.592;9.634;2022-08-03T04:52:38;2.70;;;2.50;;
1601;SDS011;794;48.592;9.634;2022-08-03T04:55:06;2.53;;;2.33;;
1601;SDS011;794;48.592;9.634;2022-08-03T04:57:34;3.23;;;3.03;;
1601;SDS011;794;48.592;9.634;2022-08-03T05:00:04;3.00;;;2.60;;
1601;SDS011;794;48.592;9.634;2022-08-03T05:02:34;2.43;;;2.10;;
1601;SDS011;794;48.592;9.634;2022-08-03T05:05:02;3.37;;;2.70;;
1601;SDS011;794;48.592;9.634;2022-08-03T05:07:32;3.53;;;3.23;;
1601;SDS011;794;48.592;9.634;2022-08-03T05:10:08;2.57;;;2.37;;
1601;SDS011;794;48.592;9.634;2022-08-03T05:12:38;2.73;;;2.50;;
1601;SDS011;794;48.592;9.634;2022-08-03T05:15:09;2.67;;;2.47;;
1601;SDS011;794;48.592;9.634;2022-08-03T05:17:37;2.97;;;2.50;;
1601;SDS011;794;48.592;9.634;2022-08-03T05:20:05;6.17;;;2.83;;
1601;SDS011;794;48.592;9.634;2022-08-03T05:22:36;4.03;;;2.67;;
1601;SDS011;794;48.592;9.634;2022-08-03T05:25:04;3.47;;;2.60;;
1601;SDS011;794;48.592;9.634;2022-08-03T05:27:32;2.63;;;2.30;;
1601;SDS011;794;48.592;9.634;2022-08-03T05:30:14;1.93;;;1.80;;
1601;SDS011;794;48.592;9.634;2022-08-03T05:32:47;2.07;;;1.87;;
1601;SDS011;794;48.592;9.634;2022-08-03T05:35:15;2.87;;;2.33;;
1601;SDS011;794;48.592;9.634;2022-08-03T05:37:49;2.43;;;2.23;;
1601;SDS011;794;48.592;9.634;2022-08-03T05:40:16;2.17;;;1.97;;
1601;SDS011;794;48.592;9.634;2022-08-03T05:42:44;5.20;;;1.97;;
1601;SDS011;794;48.592;9.634;2022-08-03T05:45:12;2.00;;;1.70;;
1601;SDS011;794;48.592;9.634;2022-08-03T05:47:42;2.07;;;1.87;;
1601;SDS011;794;48.592;9.634;2022-08-03T05:50:09;3.80;;;2.13;;
1601;SDS011;794;48.592;9.634;2022-08-03T05:52:37;2.40;;;2.20;;
1601;SDS011;794;48.592;9.634;2022-08-03T05:55:05;2.10;;;1.93;;
1601;SDS011;794;48.592;9.634;2022-08-03T05:57:33;4.60;;;2.50;;
1601;SDS011;794;48.592;9.634;2022-08-03T06:00:01;1.80;;;1.70;;
1601;SDS011;794;48.592;9.634;2022-08-03T06:02:34;2.80;;;2.47;;
1601;SDS011;794;48.592;9.634;2022-08-03T06:05:02;3.60;;;2.20;;
1601;SDS011;794;48.592;9.634;2022-08-03T06:07:33;5.13;;;1.90;;
1601;SDS011;794;48.592;9.634;2022-08-03T06:10:02;2.60;;;2.17;;
1601;SDS011;794;48.592;9.634;2022-08-03T06:12:31;2.00;;;1.90;;
1601;SDS011;794;48.592;9.634;2022-08-03T06:15:00;3.50;;;1.60;;
1601;SDS011;794;48.592;9.634;2022-08-03T06:17:40;2.40;;;2.20;;
1601;SDS011;794;48.592;9.634;2022-08-03T06:20:12;2.47;;;2.27;;
1601;SDS011;794;48.592;9.634;2022-08-03T06:22:42;2.73;;;1.90;;
1601;SDS011;794;48.592;9.634;2022-08-03T06:25:09;2.03;;;1.93;;
1601;SDS011;794;48.592;9.634;2022-08-03T06:27:47;2.60;;;2.17;;
1601;SDS011;794;48.592;9.634;2022-08-03T06:30:14;2.60;;;2.17;;
1601;SDS011;794;48.592;9.634;2022-08-03T06:32:56;2.90;;;2.10;;
1601;SDS011;794;48.592;9.634;2022-08-03T06:35:25;1.50;;;1.40;;
1601;SDS011;794;48.592;9.634;2022-08-03T06:37:53;2.67;;;1.83;;
1601;SDS011;794;48.592;9.634;2022-08-03T06:40:22;2.20;;;1.70;;
1601;SDS011;794;48.592;9.634;2022-08-03T06:42:54;1.70;;;1.60;;
1601;SDS011;794;48.592;9.634;2022-08-03T06:45:21;1.63;;;1.53;;
1601;SDS011;794;48.592;9.634;2022-08-03T06:47:58;1.53;;;1.43;;
1601;SDS011;794;48.592;9.634;2022-08-03T06:50:27;2.07;;;1.80;;
1601;SDS011;794;48.592;9.634;2022-08-03T06:52:54;2.30;;;2.10;;
1601;SDS011;794;48.592;9.634;2022-08-03T06:55:22;3.37;;;1.90;;
1601;SDS011;794;48.592;9.634;2022-08-03T06:57:49;1.80;;;1.50;;
1601;SDS011;794;48.592;9.634;2022-08-03T07:00:17;5.57;;;2.20;;
1601;SDS011;794;48.592;9.634;2022-08-03T07:02:44;2.83;;;2.43;;
1601;SDS011;794;48.592;9.634;2022-08-03T07:05:13;3.90;;;2.60;;
1601;SDS011;794;48.592;9.634;2022-08-03T07:07:43;1.93;;;1.83;;
1601;SDS011;794;48.592;9.634;2022-08-03T07:10:10;3.07;;;2.10;;
1601;SDS011;794;48.592;9.634;2022-08-03T07:12:38;2.07;;;1.63;;
1601;SDS011;794;48.592;9.634;2022-08-03T07:15:06;4.43;;;1.37;;
1601;SDS011;794;48.592;9.634;2022-08-03T07:17:34;1.80;;;1.17;;
1601;SDS011;794;48.592;9.634;2022-08-03T07:20:03;1.83;;;1.40;;
1601;SDS011;794;48.592;9.634;2022-08-03T07:22:33;2.10;;;1.43;;
1601;SDS011;794;48.592;9.634;2022-08-03T07:25:04;1.50;;;1.40;;
1601;SDS011;794;48.592;9.634;2022-08-03T07:27:32;1.93;;;1.57;;
1601;SDS011;794;48.592;9.634;2022-08-03T07:29:59;2.90;;;1.10;;
1601;SDS011;794;48.592;9.634;2022-08-03T07:32:33;2.97;;;0.97;;
1601;SDS011;794;48.592;9.634;2022-08-03T07:35:03;1.67;;;1.10;;
1601;SDS011;794;48.592;9.634;2022-08-03T07:37:31;3.13;;;1.30;;
1601;SDS011;794;48.592;9.634;2022-08-03T07:40:03;3.13;;;1.10;;
1601;SDS011;794;48.592;9.634;2022-08-03T07:42:31;1.43;;;1.33;;
1601;SDS011;794;48.592;9.634;2022-08-03T07:44:59;1.00;;;0.90;;
1601;SDS011;794;48.592;9.634;2022-08-03T07:47:28;1.70;;;1.20;;
1601;SDS011;794;48.592;9.634;2022-08-03T07:49:59;1.20;;;1.10;;
1601;SDS011;794;48.592;9.634;2022-08-03T07:52:28;1.50;;;1.33;;
1601;SDS011;794;48.592;9.634;2022-08-03T07:55:15;1.60;;;1.20;;
1601;SDS011;794;48.592;9.634;2022-08-03T07:57:43;1.93;;;1.27;;
1601;SDS011;794;48.592;9.634;2022-08-03T08:00:12;1.40;;;1.30;;
1601;SDS011;794;48.592;9.634;2022-08-03T08:02:42;1.20;;;1.10;;
1601;SDS011;794;48.592;9.634;2022-08-03T08:05:09;1.87;;;1.13;;
1601;SDS011;794;48.592;9.634;2022-08-03T08:07:42;1.70;;;1.17;;
1601;SDS011;794;48.592;9.634;2022-08-03T08:10:10;2.30;;;1.00;;
1601;SDS011;794;48.592;9.634;2022-08-03T08:12:39;1.10;;;1.00;;
1601;SDS011;794;48.592;9.634;2022-08-03T08:15:06;1.00;;;0.90;;
1601;SDS011;794;48.592;9.634;2022-08-03T08:17:40;3.53;;;1.30;;
1601;SDS011;794;48.592;9.634;2022-08-03T08:20:08;1.67;;;1.23;;
1601;SDS011;794;48.592;9.634;2022-08-03T08:22:36;1.10;;;1.00;;
1601;SDS011;794;48.592;9.634;2022-08-03T08:25:05;1.47;;;0.83;;
1601;SDS011;794;48.592;9.634;2022-08-03T08:27:41;1.73;;;1.13;;
1601;SDS011;794;48.592;9.634;2022-08-03T08:30:10;1.10;;;0.80;;
1601;SDS011;794;48.592;9.634;2022-08-03T08:32:39;1.93;;;0.80;;
1601;SDS011;794;48.592;9.634;2022-08-03T08:35:08;2.17;;;1.17;;
1601;SDS011;794;48.592;9.634;2022-08-03T08:37:36;1.33;;;1.23;;
1601;SDS011;794;48.592;9.634;2022-08-03T08:40:05;2.60;;;1.80;;
1601;SDS011;794;48.592;9.634;2022-08-03T08:42:37;1.83;;;1.00;;
1601;SDS011;794;48.592;9.634;2022-08-03T08:45:06;1.30;;;0.80;;
1601;SDS011;794;48.592;9.634;2022-08-03T08:47:37;1.67;;;1.20;;
1601;SDS011;794;48.592;9.634;2022-08-03T08:50:07;2.67;;;1.33;;
1601;SDS011;794;48.592;9.634;2022-08-03T08:52:35;1.20;;;1.10;;
1601;SDS011;794;48.592;9.634;2022-08-03T08:55:09;3.60;;;1.10;;
1601;SDS011;794;48.592;9.634;2022-08-03T08:57:41;2.40;;;1.10;;
1601;SDS011;794;48.592;9.634;2022-08-03T09:00:17;2.87;;;0.93;;
1601;SDS011;794;48.592;9.634;2022-08-03T09:02:44;1.00;;;0.80;;
1601;SDS011;794;48.592;9.634;2022-08-03T09:05:12;2.20;;;0.90;;
1601;SDS011;794;48.592;9.634;2022-08-03T09:07:42;1.27;;;1.17;;
1601;SDS011;794;48.592;9.634;2022-08-03T09:10:09;1.00;;;0.90;;
1601;SDS011;794;48.592;9.634;2022-08-03T09:12:38;1.20;;;1.10;;
1601;SDS011;794;48.592;9.634;2022-08-03T09:15:18;1.30;;;1.20;;
1601;SDS011;794;48.592;9.634;2022-08-03T09:17:48;1.23;;;1.13;;
1601;SDS011;794;48.592;9.634;2022-08-03T09:20:17;1.97;;;1.50;;
1601;SDS011;794;48.592;9.634;2022-08-03T09:22:50;2.30;;;1.30;;
1601;SDS011;794;48.592;9.634;2022-08-03T09:25:26;2.60;;;1.33;;
1601;SDS011;794;48.592;9.634;2022-08-03T09:27:55;1.40;;;1.30;;
1601;SDS011;794;48.592;9.634;2022-08-03T09:30:34;4.53;;;1.43;;
1601;SDS011;794;48.592;9.634;2022-08-03T09:33:02;1.73;;;1.50;;
1601;SDS011;794;48.592;9.634;2022-08-03T09:35:30;1.53;;;1.43;;
1601;SDS011;794;48.592;9.634;2022-08-03T09:38:12;1.40;;;1.30;;
1601;SDS011;794;48.592;9.634;2022-08-03T09:40:40;1.83;;;1.43;;
1601;SDS011;794;48.592;9.634;2022-08-03T09:43:08;3.63;;;1.50;;
1601;SDS011;794;48.592;9.634;2022-08-03T09:45:37;2.10;;;1.20;;
1601;SDS011;794;48.592;9.634;2022-08-03T09:48:18;1.63;;;1.33;;
1601;SDS011;794;48.592;9.634;2022-08-03T09:50:47;2.47;;;1.60;;
1601;SDS011;794;48.592;9.634;2022-08-03T09:53:17;1.30;;;1.20;;
1601;SDS011;794;48.592;9.634;2022-08-03T09:55:51;2.10;;;1.90;;
1601;SDS011;794;48.592;9.634;2022-08-03T09:58:23;2.57;;;1.30;;
1601;SDS011;794;48.592;9.634;2022-08-03T10:00:55;3.30;;;1.37;;
1601;SDS011;794;48.592;9.634;2022-08-03T10:03:25;2.23;;;1.80;;
1601;SDS011;794;48.592;9.634;2022-08-03T10:05:53;1.40;;;1.30;;
1601;SDS011;794;48.592;9.634;2022-08-03T10:08:23;2.90;;;1.50;;
1601;SDS011;794;48.592;9.634;2022-08-03T10:10:51;1.73;;;1.63;;
1601;SDS011;794;48.592;9.634;2022-08-03T10:13:22;2.40;;;1.20;;
1601;SDS011;794;48.592;9.634;2022-08-03T10:15:50;2.17;;;1.40;;
1601;SDS011;794;48.592;9.634;2022-08-03T10:18:19;2.53;;;1.30;;
1601;SDS011;794;48.592;9.634;2022-08-03T10:20:48;1.77;;;1.40;;
1601;SDS011;794;48.592;9.634;2022-08-03T10:23:18;2.00;;;1.40;;
1601;SDS011;794;48.592;9.634;2022-08-03T10:25:47;1.60;;;1.40;;
1601;SDS011;794;48.592;9.634;2022-08-03T10:28:18;1.90;;;1.60;;
1601;SDS011;794;48.592;9.634;2022-08-03T10:30:49;1.57;;;1.40;;
1601;SDS011;794;48.592;9.634;2022-08-03T10:33:23;6.50;;;1.20;;
1601;SDS011;794;48.592;9.634;2022-08-03T10:35:53;1.33;;;1.23;;
1601;SDS011;794;48.592;9.634;2022-08-03T10:38:28;2.70;;;1.10;;
1601;SDS011;794;48.592;9.634;2022-08-03T10:40:58;1.80;;;1.40;;
1601;SDS011;794;48.592;9.634;2022-08-03T10:46:13;1.90;;;1.80;;
1601;SDS011;794;48.592;9.634;2022-08-03T10:48:43;1.60;;;1.50;;
1601;SDS011;794;48.592;9.634;2022-08-03T10:51:11;1.27;;;0.97;;
1601;SDS011;794;48.592;9.634;2022-08-03T10:53:39;1.30;;;1.20;;
1601;SDS011;794;48.592;9.634;2022-08-03T10:56:22;2.17;;;1.40;;
1601;SDS011;794;48.592;9.634;2022-08-03T11:02:23;1.60;;;1.47;;
1601;SDS011;794;48.592;9.634;2022-08-03T11:05:32;2.27;;;1.70;;
1601;SDS011;794;48.592;9.634;2022-08-03T11:08:19;2.00;;;1.73;;
1601;SDS011;794;48.592;9.634;2022-08-03T11:10:52;1.50;;;1.40;;
1601;SDS011;794;48.592;9.634;2022-08-03T11:13:21;1.50;;;1.33;;
1601;SDS011;794;48.592;9.634;2022-08-03T11:15:50;1.30;;;1.20;;
1601;SDS011;794;48.592;9.634;2022-08-03T11:18:18;3.13;;;1.60;;
1601;SDS011;794;48.592;9.634;2022-08-03T11:20:47;3.70;;;1.90;;
1601;SDS011;794;48.592;9.634;2022-08-03T11:23:17;4.50;;;1.60;;
1601;SDS011;794;48.592;9.634;2022-08-03T11:28:35;1.50;;;1.37;;
1601;SDS011;794;48.592;9.634;2022-08-03T11:34:12;2.60;;;1.30;;
1601;SDS011;794;48.592;9.634;2022-08-03T11:39:43;2.03;;;1.40;;
1601;SDS011;794;48.592;9.634;2022-08-03T11:45:09;7.20;;;2.00;;
1601;SDS011;794;48.592;9.634;2022-08-03T11:47:39;3.93;;;1.73;;
1601;SDS011;794;48.592;9.634;2022-08-03T11:50:08;2.07;;;1.80;;
1601;SDS011;794;48.592;9.634;2022-08-03T11:52:37;2.10;;;1.57;;
1601;SDS011;794;48.592;9.634;2022-08-03T11:55:14;2.23;;;1.77;;
1601;SDS011;794;48.592;9.634;2022-08-03T11:57:44;2.00;;;1.50;;
1601;SDS011;794;48.592;9.634;2022-08-03T12:00:22;1.73;;;1.60;;
1601;SDS011;794;48.592;9.634;2022-08-03T12:02:54;3.33;;;1.33;;
1601;SDS011;794;48.592;9.634;2022-08-03T12:05:32;1.50;;;1.40;;
1601;SDS011;794;48.592;9.634;2022-08-03T12:08:03;1.40;;;1.30;;
1601;SDS011;794;48.592;9.634;2022-08-03T12:10:33;2.00;;;1.43;;
1601;SDS011;794;48.592;9.634;2022-08-03T12:13:00;1.20;;;1.10;;
1601;SDS011;794;48.592;9.634;2022-08-03T12:15:31;1.70;;;1.60;;
1601;SDS011;794;48.592;9.634;2022-08-03T12:17:59;1.50;;;1.40;;
1601;SDS011;794;48.592;9.634;2022-08-03T12:20:27;1.60;;;1.50;;
1601;SDS011;794;48.592;9.634;2022-08-03T12:23:00;3.30;;;1.70;;
1601;SDS011;794;48.592;9.634;2022-08-03T12:25:29;2.00;;;1.80;;
1601;SDS011;794;48.592;9.634;2022-08-03T12:28:06;2.50;;;2.00;;
1601;SDS011;794;48.592;9.634;2022-08-03T12:30:35;2.33;;;1.90;;
1601;SDS011;794;48.592;9.634;2022-08-03T12:33:12;1.77;;;1.67;;
1601;SDS011;794;48.592;9.634;2022-08-03T12:35:40;1.63;;;1.53;;
1601;SDS011;794;48.592;9.634;2022-08-03T12:38:07;1.57;;;1.47;;
1601;SDS011;794;48.592;9.634;2022-08-03T12:40:36;2.07;;;1.60;;
1601;SDS011;794;48.592;9.634;2022-08-03T12:43:10;3.40;;;1.50;;
1601;SDS011;794;48.592;9.634;2022-08-03T12:45:38;1.83;;;1.73;;
1601;SDS011;794;48.592;9.634;2022-08-03T12:48:07;1.97;;;1.37;;
1601;SDS011;794;48.592;9.634;2022-08-03T12:50:36;4.30;;;1.67;;
1601;SDS011;794;48.592;9.634;2022-08-03T12:53:06;1.80;;;1.70;;
1601;SDS011;794;48.592;9.634;2022-08-03T12:55:35;1.77;;;1.67;;
1601;SDS011;794;48.592;9.634;2022-08-03T12:58:03;2.17;;;1.60;;
1601;SDS011;794;48.592;9.634;2022-08-03T13:00:33;2.20;;;1.13;;
1601;SDS011;794;48.592;9.634;2022-08-03T13:03:00;2.10;;;1.43;;
1601;SDS011;794;48.592;9.634;2022-08-03T13:05:29;2.17;;;1.57;;
1601;SDS011;794;48.592;9.634;2022-08-03T13:07:57;1.77;;;1.60;;
1601;SDS011;794;48.592;9.634;2022-08-03T13:10:27;1.70;;;1.60;;
1601;SDS011;794;48.592;9.634;2022-08-03T13:12:55;8.73;;;1.80;;
1601;SDS011;794;48.592;9.634;2022-08-03T13:15:24;2.50;;;1.60;;
1601;SDS011;794;48.592;9.634;2022-08-03T13:17:53;1.60;;;1.50;;
1601;SDS011;794;48.592;9.634;2022-08-03T13:20:21;1.60;;;1.50;;
1601;SDS011;794;48.592;9.634;2022-08-03T13:22:48;1.97;;;1.80;;
1601;SDS011;794;48.592;9.634;2022-08-03T13:25:15;1.90;;;1.70;;
1601;SDS011;794;48.592;9.634;2022-08-03T13:27:42;4.10;;;1.87;;
1601;SDS011;794;48.592;9.634;2022-08-03T13:30:09;5.07;;;2.13;;
1601;SDS011;794;48.592;9.634;2022-08-03T13:32:36;2.33;;;1.67;;
1601;SDS011;794;48.592;9.634;2022-08-03T13:35:05;4.87;;;2.27;;
1601;SDS011;794;48.592;9.634;2022-08-03T13:37:33;2.30;;;2.10;;
1601;SDS011;794;48.592;9.634;2022-08-03T13:40:01;1.77;;;1.67;;
1601;SDS011;794;48.592;9.634;2022-08-03T13:42:31;2.97;;;1.80;;
1601;SDS011;794;48.592;9.634;2022-08-03T13:44:59;1.60;;;1.50;;
1601;SDS011;794;48.592;9.634;2022-08-03T13:47:27;2.77;;;2.20;;
1601;SDS011;794;48.592;9.634;2022-08-03T13:49:54;1.60;;;1.50;;
1601;SDS011;794;48.592;9.634;2022-08-03T13:52:22;2.33;;;1.57;;
1601;SDS011;794;48.592;9.634;2022-08-03T13:54:49;2.90;;;1.60;;
1601;SDS011;794;48.592;9.634;2022-08-03T13:57:16;2.43;;;1.50;;
1601;SDS011;794;48.592;9.634;2022-08-03T13:59:43;2.80;;;1.40;;
1601;SDS011;794;48.592;9.634;2022-08-03T14:02:10;3.00;;;1.70;;
1601;SDS011;794;48.592;9.634;2022-08-03T14:04:37;3.03;;;1.77;;
1601;SDS011;794;48.592;9.634;2022-08-03T14:07:04;1.87;;;1.70;;
1601;SDS011;794;48.592;9.634;2022-08-03T14:09:32;2.40;;;1.47;;
1601;SDS011;794;48.592;9.634;2022-08-03T14:11:59;4.93;;;2.03;;
1601;SDS011;794;48.592;9.634;2022-08-03T14:14:26;2.27;;;2.07;;
1601;SDS011;794;48.592;9.634;2022-08-03T14:16:54;1.80;;;1.70;;
1601;SDS011;794;48.592;9.634;2022-08-03T14:19:21;1.77;;;1.67;;
1601;SDS011;794;48.592;9.634;2022-08-03T14:21:48;1.83;;;1.73;;
1601;SDS011;794;48.592;9.634;2022-08-03T14:24:14;2.07;;;1.87;;
1601;SDS011;794;48.592;9.634;2022-08-03T14:26:43;3.07;;;1.50;;
1601;SDS011;794;48.592;9.634;2022-08-03T14:29:09;3.33;;;1.77;;
1601;SDS011;794;48.592;9.634;2022-08-03T14:31:37;2.00;;;1.80;;
1601;SDS011;794;48.592;9.634;2022-08-03T14:34:04;5.03;;;1.80;;
1601;SDS011;794;48.592;9.634;2022-08-03T14:36:30;1.73;;;1.63;;
1601;SDS011;794;48.592;9.634;2022-08-03T14:38:57;2.27;;;2.17;;
1601;SDS011;794;48.592;9.634;2022-08-03T14:41:24;2.53;;;1.67;;
1601;SDS011;794;48.592;9.634;2022-08-03T14:43:53;2.10;;;1.70;;
1601;SDS011;794;48.592;9.634;2022-08-03T14:46:20;2.30;;;1.80;;
1601;SDS011;794;48.592;9.634;2022-08-03T14:48:47;2.10;;;1.90;;
1601;SDS011;794;48.592;9.634;2022-08-03T14:51:14;1.73;;;1.33;;
1601;SDS011;794;48.592;9.634;2022-08-03T14:53:41;2.17;;;1.97;;
1601;SDS011;794;48.592;9.634;2022-08-03T14:56:08;1.90;;;1.80;;
1601;SDS011;794;48.592;9.634;2022-08-03T14:58:35;2.97;;;2.17;;
1601;SDS011;794;48.592;9.634;2022-08-03T15:01:03;1.97;;;1.80;;
1601;SDS011;794;48.592;9.634;2022-08-03T15:03:31;1.83;;;1.73;;
1601;SDS011;794;48.592;9.634;2022-08-03T15:05:58;1.80;;;1.70;;
1601;SDS011;794;48.592;9.634;2022-08-03T15:08:25;2.20;;;1.70;;
1601;SDS011;794;48.592;9.634;2022-08-03T15:10:53;1.87;;;1.77;;
1601;SDS011;794;48.592;9.634;2022-08-03T15:13:20;1.70;;;1.60;;
1601;SDS011;794;48.592;9.634;2022-08-03T15:15:49;2.50;;;1.97;;
1601;SDS011;794;48.592;9.634;2022-08-03T15:18:18;1.90;;;1.70;;
1601;SDS011;794;48.592;9.634;2022-08-03T15:20:45;1.67;;;1.57;;
1601;SDS011;794;48.592;9.634;2022-08-03T15:23:13;3.17;;;1.70;;
1601;SDS011;794;48.592;9.634;2022-08-03T15:25:41;3.20;;;2.10;;
1601;SDS011;794;48.592;9.634;2022-08-03T15:28:08;2.20;;;2.07;;
1601;SDS011;794;48.592;9.634;2022-08-03T15:30:35;1.60;;;1.50;;
1601;SDS011;794;48.592;9.634;2022-08-03T15:33:02;2.60;;;1.30;;
1601;SDS011;794;48.592;9.634;2022-08-03T15:35:31;2.33;;;1.70;;
1601;SDS011;794;48.592;9.634;2022-08-03T15:37:58;1.67;;;1.57;;
1601;SDS011;794;48.592;9.634;2022-08-03T15:40:25;2.03;;;1.40;;
1601;SDS011;794;48.592;9.634;2022-08-03T15:42:51;3.57;;;1.90;;
1601;SDS011;794;48.592;9.634;2022-08-03T15:48:09;4.60;;;1.80;;
1601;SDS011;794;48.592;9.634;2022-08-03T15:50:37;1.60;;;1.50;;
1601;SDS011;794;48.592;9.634;2022-08-03T15:53:05;4.70;;;2.27;;
1601;SDS011;794;48.592;9.634;2022-08-03T15:55:31;1.40;;;1.20;;
1601;SDS011;794;48.592;9.634;2022-08-03T15:57:59;2.00;;;1.50;;
1601;SDS011;794;48.592;9.634;2022-08-03T16:00:25;1.30;;;1.20;;
1601;SDS011;794;48.592;9.634;2022-08-03T16:02:54;1.83;;;1.73;;
1601;SDS011;794;48.592;9.634;2022-08-03T16:05:22;1.47;;;1.37;;
1601;SDS011;794;48.592;9.634;2022-08-03T16:07:50;2.47;;;1.70;;